sensor_id;sensor_type;location;lat;lon;timestamp;pressure;altitude;pressure_sealevel;temperature;humidity
46846;BME280;33947;46.804;134.252;2024-01-15T00:01:50;101219.56;;;-17.83;59.17
46846;BME280;33947;46.804;134.252;2024-01-15T00:04:57;101228.38;;;-17.80;60.92
46846;BME280;33947;46.804;134.252;2024-01-15T00:08:05;101246.31;;;-17.78;59.34
46846;BME280;33947;46.804;134.252;2024-01-15T00:11:13;101243.69;;;-16.71;62.19
46846;BME280;33947;46.804;134.252;2024-01-15T00:14:20;101246.03;;;-16.27;60.63
46846;BME280;33947;46.804;134.252;2024-01-15T00:17:29;101248.38;;;-15.62;59.83
46846;BME280;33947;46.804;134.252;2024-01-15T00:20:36;101250.69;;;-14.46;59.89
46846;BME280;33947;46.804;134.252;2024-01-15T00:23:43;101228.78;;;-13.82;57.58
46846;BME280;33947;46.804;134.252;2024-01-15T00:26:50;101252.38;;;-13.20;55.52
46846;BME280;33947;46.804;134.252;2024-01-15T00:30:04;101259.56;;;-12.94;56.14
46846;BME280;33947;46.804;134.252;2024-01-15T00:33:14;101259.91;;;-12.57;55.46
46846;BME280;33947;46.804;134.252;2024-01-15T00:36:21;101259.94;;;-12.23;54.71
46846;BME280;33947;46.804;134.252;2024-01-15T00:39:28;101260.19;;;-12.86;54.15
46846;BME280;33947;46.804;134.252;2024-01-15T00:42:35;101263.53;;;-12.43;57.57
46846;BME280;33947;46.804;134.252;2024-01-15T00:45:43;101262.88;;;-11.36;55.63
46846;BME280;33947;46.804;134.252;2024-01-15T00:48:52;101257.75;;;-11.48;53.10
46846;BME280;33947;46.804;134.252;2024-01-15T00:52:00;101270.56;;;-12.95;50.97
46846;BME280;33947;46.804;134.252;2024-01-15T00:55:07;101244.19;;;-13.27;53.17
46846;BME280;33947;46.804;134.252;2024-01-15T00:58:14;101241.59;;;-13.49;52.38
46846;BME280;33947;46.804;134.252;2024-01-15T01:01:21;101279.88;;;-13.92;51.88
46846;BME280;33947;46.804;134.252;2024-01-15T01:04:30;101272.06;;;-12.87;53.10
46846;BME280;33947;46.804;134.252;2024-01-15T01:07:38;101278.03;;;-12.76;51.17
46846;BME280;33947;46.804;134.252;2024-01-15T01:10:45;101276.50;;;-12.52;51.27
46846;BME280;33947;46.804;134.252;2024-01-15T01:13:52;101283.78;;;-12.46;50.28
46846;BME280;33947;46.804;134.252;2024-01-15T01:17:01;101288.06;;;-11.54;48.45
46846;BME280;33947;46.804;134.252;2024-01-15T01:20:10;101292.41;;;-12.56;50.02
46846;BME280;33947;46.804;134.252;2024-01-15T01:23:21;101296.97;;;-12.07;50.41
46846;BME280;33947;46.804;134.252;2024-01-15T01:26:27;101295.84;;;-11.99;51.18
46846;BME280;33947;46.804;134.252;2024-01-15T01:29:35;101300.09;;;-11.29;48.50
46846;BME280;33947;46.804;134.252;2024-01-15T01:32:42;101294.31;;;-11.03;47.82
46846;BME280;33947;46.804;134.252;2024-01-15T01:35:52;101296.09;;;-11.84;48.00
46846;BME280;33947;46.804;134.252;2024-01-15T01:39:02;101276.72;;;-11.34;48.08
46846;BME280;33947;46.804;134.252;2024-01-15T01:42:08;101298.56;;;-10.92;45.49
46846;BME280;33947;46.804;134.252;2024-01-15T01:45:16;101301.72;;;-11.66;45.21
46846;BME280;33947;46.804;134.252;2024-01-15T01:48:23;101300.03;;;-10.21;48.51
46846;BME280;33947;46.804;134.252;2024-01-15T01:51:34;101293.72;;;-10.63;45.57
46846;BME280;33947;46.804;134.252;2024-01-15T01:54:44;101297.97;;;-10.01;46.51
46846;BME280;33947;46.804;134.252;2024-01-15T01:57:52;101294.75;;;-9.33;44.84
46846;BME280;33947;46.804;134.252;2024-01-15T02:00:59;101283.97;;;-9.79;44.12
46846;BME280;33947;46.804;134.252;2024-01-15T02:04:08;101293.69;;;-10.51;43.92
46846;BME280;33947;46.804;134.252;2024-01-15T02:07:18;101297.00;;;-9.90;42.95
46846;BME280;33947;46.804;134.252;2024-01-15T02:10:24;101289.97;;;-10.43;42.57
46846;BME280;33947;46.804;134.252;2024-01-15T02:13:31;101290.97;;;-11.14;42.11
46846;BME280;33947;46.804;134.252;2024-01-15T02:16:41;101294.53;;;-11.82;42.24
46846;BME280;33947;46.804;134.252;2024-01-15T02:19:49;101268.25;;;-12.25;44.53
46846;BME280;33947;46.804;134.252;2024-01-15T02:23:07;101289.41;;;-11.36;43.60
46846;BME280;33947;46.804;134.252;2024-01-15T02:26:14;101284.78;;;-11.64;44.71
46846;BME280;33947;46.804;134.252;2024-01-15T02:29:23;101288.19;;;-11.87;45.37
46846;BME280;33947;46.804;134.252;2024-01-15T02:32:30;101289.38;;;-11.00;46.53
46846;BME280;33947;46.804;134.252;2024-01-15T02:35:37;101282.16;;;-11.99;43.51
46846;BME280;33947;46.804;134.252;2024-01-15T02:38:47;101251.22;;;-12.59;43.59
46846;BME280;33947;46.804;134.252;2024-01-15T02:42:20;101275.91;;;-12.03;44.94
46846;BME280;33947;46.804;134.252;2024-01-15T02:45:28;101274.34;;;-12.35;44.90
46846;BME280;33947;46.804;134.252;2024-01-15T02:48:35;101270.38;;;-13.19;45.37
46846;BME280;33947;46.804;134.252;2024-01-15T02:51:42;101273.84;;;-13.18;48.44
46846;BME280;33947;46.804;134.252;2024-01-15T02:54:51;101275.56;;;-11.96;46.33
46846;BME280;33947;46.804;134.252;2024-01-15T02:58:00;101278.41;;;-11.81;46.29
46846;BME280;33947;46.804;134.252;2024-01-15T03:01:07;101275.72;;;-12.51;45.23
46846;BME280;33947;46.804;134.252;2024-01-15T03:04:13;101282.13;;;-12.78;44.33
46846;BME280;33947;46.804;134.252;2024-01-15T03:07:21;101274.63;;;-13.19;46.21
46846;BME280;33947;46.804;134.252;2024-01-15T03:10:34;101281.75;;;-13.15;47.90
46846;BME280;33947;46.804;134.252;2024-01-15T03:13:41;101287.13;;;-13.65;46.09
46846;BME280;33947;46.804;134.252;2024-01-15T03:16:48;101273.28;;;-12.49;49.47
46846;BME280;33947;46.804;134.252;2024-01-15T03:19:55;101280.75;;;-13.17;47.13
46846;BME280;33947;46.804;134.252;2024-01-15T03:23:02;101281.91;;;-12.81;48.03
46846;BME280;33947;46.804;134.252;2024-01-15T03:26:11;101280.72;;;-13.07;46.75
46846;BME280;33947;46.804;134.252;2024-01-15T03:29:18;101273.50;;;-13.33;46.35
46846;BME280;33947;46.804;134.252;2024-01-15T03:32:25;101269.47;;;-13.52;48.30
46846;BME280;33947;46.804;134.252;2024-01-15T03:35:33;101273.94;;;-13.17;48.54
46846;BME280;33947;46.804;134.252;2024-01-15T03:38:41;101280.94;;;-13.36;47.10
46846;BME280;33947;46.804;134.252;2024-01-15T03:41:51;101276.13;;;-12.78;48.78
46846;BME280;33947;46.804;134.252;2024-01-15T03:44:57;101269.75;;;-12.84;48.09
46846;BME280;33947;46.804;134.252;2024-01-15T03:48:06;101273.03;;;-13.07;47.26
46846;BME280;33947;46.804;134.252;2024-01-15T03:51:16;101252.38;;;-13.20;48.18
46846;BME280;33947;46.804;134.252;2024-01-15T03:54:23;101275.19;;;-13.01;47.02
46846;BME280;33947;46.804;134.252;2024-01-15T03:57:33;101278.59;;;-12.90;47.10
46846;BME280;33947;46.804;134.252;2024-01-15T04:00:40;101278.00;;;-13.09;47.57
46846;BME280;33947;46.804;134.252;2024-01-15T04:03:47;101277.72;;;-12.91;48.69
46846;BME280;33947;46.804;134.252;2024-01-15T04:06:55;101278.88;;;-13.41;45.35
46846;BME280;33947;46.804;134.252;2024-01-15T04:10:07;101278.06;;;-14.14;47.67
46846;BME280;33947;46.804;134.252;2024-01-15T04:13:16;101288.22;;;-13.41;49.01
46846;BME280;33947;46.804;134.252;2024-01-15T04:16:23;101288.94;;;-13.32;47.61
46846;BME280;33947;46.804;134.252;2024-01-15T04:19:30;101274.13;;;-13.79;47.86
46846;BME280;33947;46.804;134.252;2024-01-15T04:22:37;101280.22;;;-13.56;47.24
46846;BME280;33947;46.804;134.252;2024-01-15T04:25:44;101281.56;;;-13.39;47.32
46846;BME280;33947;46.804;134.252;2024-01-15T04:28:52;101280.31;;;-13.01;48.86
46846;BME280;33947;46.804;134.252;2024-01-15T04:31:59;101288.00;;;-13.65;47.41
46846;BME280;33947;46.804;134.252;2024-01-15T04:35:07;101282.38;;;-13.50;48.04
46846;BME280;33947;46.804;134.252;2024-01-15T04:38:14;101293.03;;;-13.77;48.39
46846;BME280;33947;46.804;134.252;2024-01-15T04:41:21;101297.47;;;-13.74;47.44
46846;BME280;33947;46.804;134.252;2024-01-15T04:44:29;101298.13;;;-13.77;48.56
46846;BME280;33947;46.804;134.252;2024-01-15T04:47:36;101294.03;;;-13.64;48.96
46846;BME280;33947;46.804;134.252;2024-01-15T04:50:43;101289.19;;;-14.03;48.66
46846;BME280;33947;46.804;134.252;2024-01-15T04:53:51;101300.66;;;-13.56;49.81
46846;BME280;33947;46.804;134.252;2024-01-15T04:56:59;101298.22;;;-13.12;48.89
46846;BME280;33947;46.804;134.252;2024-01-15T05:00:10;101300.53;;;-13.04;47.67
46846;BME280;33947;46.804;134.252;2024-01-15T05:03:18;101309.19;;;-12.92;48.62
46846;BME280;33947;46.804;134.252;2024-01-15T05:06:25;101316.28;;;-13.31;48.02
46846;BME280;33947;46.804;134.252;2024-01-15T05:09:33;101321.06;;;-13.46;48.68
46846;BME280;33947;46.804;134.252;2024-01-15T05:12:41;101317.78;;;-13.65;48.42
46846;BME280;33947;46.804;134.252;2024-01-15T05:15:49;101322.38;;;-13.92;48.52
46846;BME280;33947;46.804;134.252;2024-01-15T05:18:57;101327.34;;;-13.73;50.05
46846;BME280;33947;46.804;134.252;2024-01-15T05:22:07;101324.66;;;-14.06;48.10
46846;BME280;33947;46.804;134.252;2024-01-15T05:25:14;101332.59;;;-13.72;49.99
46846;BME280;33947;46.804;134.252;2024-01-15T05:28:22;101336.94;;;-13.71;46.63
46846;BME280;33947;46.804;134.252;2024-01-15T05:31:31;101339.22;;;-13.84;46.87
46846;BME280;33947;46.804;134.252;2024-01-15T05:34:39;101346.88;;;-13.84;47.75
46846;BME280;33947;46.804;134.252;2024-01-15T05:37:46;101351.94;;;-14.26;48.01
46846;BME280;33947;46.804;134.252;2024-01-15T05:40:53;101357.78;;;-14.77;48.16
46846;BME280;33947;46.804;134.252;2024-01-15T05:44:00;101368.38;;;-14.62;48.35
46846;BME280;33947;46.804;134.252;2024-01-15T05:47:09;101341.91;;;-14.53;48.24
46846;BME280;33947;46.804;134.252;2024-01-15T05:50:17;101378.53;;;-14.13;49.06
46846;BME280;33947;46.804;134.252;2024-01-15T05:53:24;101379.97;;;-14.36;45.95
46846;BME280;33947;46.804;134.252;2024-01-15T05:56:32;101386.63;;;-14.67;48.30
46846;BME280;33947;46.804;134.252;2024-01-15T05:59:40;101395.28;;;-14.76;48.48
46846;BME280;33947;46.804;134.252;2024-01-15T06:02:49;101395.50;;;-15.21;47.36
46846;BME280;33947;46.804;134.252;2024-01-15T06:05:58;101401.56;;;-15.30;48.44
46846;BME280;33947;46.804;134.252;2024-01-15T06:09:06;101405.72;;;-15.68;47.78
46846;BME280;33947;46.804;134.252;2024-01-15T06:12:14;101417.56;;;-15.78;49.49
46846;BME280;33947;46.804;134.252;2024-01-15T06:15:21;101419.00;;;-15.90;48.59
46846;BME280;33947;46.804;134.252;2024-01-15T06:18:30;101426.94;;;-15.59;50.20
46846;BME280;33947;46.804;134.252;2024-01-15T06:21:37;101431.66;;;-15.53;49.30
46846;BME280;33947;46.804;134.252;2024-01-15T06:24:43;101428.41;;;-15.52;48.61
46846;BME280;33947;46.804;134.252;2024-01-15T06:27:51;101437.63;;;-15.72;48.97
46846;BME280;33947;46.804;134.252;2024-01-15T06:30:58;101436.47;;;-15.57;49.56
46846;BME280;33947;46.804;134.252;2024-01-15T06:34:07;101437.00;;;-15.89;47.94
46846;BME280;33947;46.804;134.252;2024-01-15T06:37:14;101445.75;;;-15.85;49.47
46846;BME280;33947;46.804;134.252;2024-01-15T06:40:23;101451.63;;;-16.23;48.79
46846;BME280;33947;46.804;134.252;2024-01-15T06:43:30;101448.88;;;-16.07;49.38
46846;BME280;33947;46.804;134.252;2024-01-15T06:46:38;101459.34;;;-15.76;48.87
46846;BME280;33947;46.804;134.252;2024-01-15T06:49:50;101453.63;;;-15.92;49.15
46846;BME280;33947;46.804;134.252;2024-01-15T06:52:58;101451.66;;;-15.95;49.35
46846;BME280;33947;46.804;134.252;2024-01-15T06:56:06;101464.59;;;-16.11;48.72
46846;BME280;33947;46.804;134.252;2024-01-15T06:59:13;101461.91;;;-16.04;49.31
46846;BME280;33947;46.804;134.252;2024-01-15T07:02:23;101465.81;;;-16.16;49.65
46846;BME280;33947;46.804;134.252;2024-01-15T07:05:31;101420.94;;;-16.33;49.03
46846;BME280;33947;46.804;134.252;2024-01-15T07:08:43;101463.81;;;-16.01;49.32
46846;BME280;33947;46.804;134.252;2024-01-15T07:11:51;101465.25;;;-16.31;48.15
46846;BME280;33947;46.804;134.252;2024-01-15T07:15:00;101470.94;;;-16.25;50.12
46846;BME280;33947;46.804;134.252;2024-01-15T07:18:07;101484.81;;;-16.04;49.20
46846;BME280;33947;46.804;134.252;2024-01-15T07:21:16;101487.06;;;-16.07;49.58
46846;BME280;33947;46.804;134.252;2024-01-15T07:24:24;101489.66;;;-16.42;49.53
46846;BME280;33947;46.804;134.252;2024-01-15T07:27:32;101489.50;;;-16.35;49.50
46846;BME280;33947;46.804;134.252;2024-01-15T07:30:39;101493.09;;;-16.77;49.10
46846;BME280;33947;46.804;134.252;2024-01-15T07:33:46;101501.03;;;-17.18;50.07
46846;BME280;33947;46.804;134.252;2024-01-15T07:36:55;101495.75;;;-17.37;50.47
46846;BME280;33947;46.804;134.252;2024-01-15T07:40:02;101503.69;;;-17.25;51.59
46846;BME280;33947;46.804;134.252;2024-01-15T07:43:11;101498.78;;;-16.97;50.98
46846;BME280;33947;46.804;134.252;2024-01-15T07:46:18;101503.72;;;-17.16;50.92
46846;BME280;33947;46.804;134.252;2024-01-15T07:49:25;101516.28;;;-17.18;51.11
46846;BME280;33947;46.804;134.252;2024-01-15T07:52:34;101519.22;;;-17.30;50.82
46846;BME280;33947;46.804;134.252;2024-01-15T07:55:40;101518.31;;;-17.40;50.68
46846;BME280;33947;46.804;134.252;2024-01-15T07:58:47;101528.13;;;-17.52;51.28
46846;BME280;33947;46.804;134.252;2024-01-15T08:01:54;101519.00;;;-17.50;51.34
46846;BME280;33947;46.804;134.252;2024-01-15T08:05:05;101528.13;;;-17.52;51.09
46846;BME280;33947;46.804;134.252;2024-01-15T08:08:14;101539.41;;;-17.66;51.52
46846;BME280;33947;46.804;134.252;2024-01-15T08:11:22;101538.34;;;-17.68;51.32
46846;BME280;33947;46.804;134.252;2024-01-15T08:14:29;101541.38;;;-17.88;51.20
46846;BME280;33947;46.804;134.252;2024-01-15T08:17:37;101546.81;;;-18.10;50.41
46846;BME280;33947;46.804;134.252;2024-01-15T08:20:45;101545.66;;;-18.45;50.88
46846;BME280;33947;46.804;134.252;2024-01-15T08:23:54;101552.16;;;-18.72;51.83
46846;BME280;33947;46.804;134.252;2024-01-15T08:27:02;101553.38;;;-18.69;52.64
46846;BME280;33947;46.804;134.252;2024-01-15T08:30:11;101560.56;;;-18.97;52.07
46846;BME280;33947;46.804;134.252;2024-01-15T08:33:18;101559.19;;;-18.86;51.96
46846;BME280;33947;46.804;134.252;2024-01-15T08:36:27;101563.00;;;-18.89;52.26
46846;BME280;33947;46.804;134.252;2024-01-15T08:39:46;101558.78;;;-18.82;51.98
46846;BME280;33947;46.804;134.252;2024-01-15T08:42:55;101557.22;;;-19.21;52.22
46846;BME280;33947;46.804;134.252;2024-01-15T08:46:03;101555.63;;;-19.04;52.26
46846;BME280;33947;46.804;134.252;2024-01-15T08:49:11;101565.97;;;-19.49;51.73
46846;BME280;33947;46.804;134.252;2024-01-15T08:52:19;101568.16;;;-19.52;52.58
46846;BME280;33947;46.804;134.252;2024-01-15T08:55:28;101570.00;;;-19.98;52.37
46846;BME280;33947;46.804;134.252;2024-01-15T08:58:36;101562.94;;;-19.77;53.89
46846;BME280;33947;46.804;134.252;2024-01-15T09:01:43;101579.53;;;-19.95;53.53
46846;BME280;33947;46.804;134.252;2024-01-15T09:04:50;101579.91;;;-19.76;52.98
46846;BME280;33947;46.804;134.252;2024-01-15T09:07:57;101582.69;;;-19.89;53.36
46846;BME280;33947;46.804;134.252;2024-01-15T09:11:07;101561.47;;;-19.75;53.31
46846;BME280;33947;46.804;134.252;2024-01-15T09:14:14;101584.34;;;-20.13;53.15
46846;BME280;33947;46.804;134.252;2024-01-15T09:17:32;101575.59;;;-20.31;53.53
46846;BME280;33947;46.804;134.252;2024-01-15T09:20:39;101588.75;;;-20.33;54.49
46846;BME280;33947;46.804;134.252;2024-01-15T09:23:46;101584.41;;;-20.27;54.44
46846;BME280;33947;46.804;134.252;2024-01-15T09:26:56;101580.22;;;-20.19;53.88
46846;BME280;33947;46.804;134.252;2024-01-15T09:30:04;101574.97;;;-20.14;53.32
46846;BME280;33947;46.804;134.252;2024-01-15T09:33:12;101596.09;;;-19.90;52.08
46846;BME280;33947;46.804;134.252;2024-01-15T09:36:19;101590.44;;;-20.48;53.10
46846;BME280;33947;46.804;134.252;2024-01-15T09:39:27;101608.16;;;-20.56;53.11
46846;BME280;33947;46.804;134.252;2024-01-15T09:42:38;101605.63;;;-21.08;53.77
46846;BME280;33947;46.804;134.252;2024-01-15T09:45:46;101611.78;;;-20.99;55.37
46846;BME280;33947;46.804;134.252;2024-01-15T09:48:53;101604.41;;;-21.19;55.06
46846;BME280;33947;46.804;134.252;2024-01-15T09:52:01;101603.84;;;-21.16;55.23
46846;BME280;33947;46.804;134.252;2024-01-15T09:55:15;101601.50;;;-20.55;54.67
46846;BME280;33947;46.804;134.252;2024-01-15T09:58:25;101606.91;;;-20.52;53.53
46846;BME280;33947;46.804;134.252;2024-01-15T10:01:37;101573.16;;;-20.90;53.28
46846;BME280;33947;46.804;134.252;2024-01-15T10:04:45;101621.75;;;-20.62;53.01
46846;BME280;33947;46.804;134.252;2024-01-15T10:07:53;101612.84;;;-21.04;53.04
46846;BME280;33947;46.804;134.252;2024-01-15T10:11:02;101618.44;;;-20.99;53.67
46846;BME280;33947;46.804;134.252;2024-01-15T10:14:12;101568.44;;;-20.87;52.85
46846;BME280;33947;46.804;134.252;2024-01-15T10:17:19;101593.06;;;-21.37;52.64
46846;BME280;33947;46.804;134.252;2024-01-15T10:20:26;101631.06;;;-21.43;54.07
46846;BME280;33947;46.804;134.252;2024-01-15T10:23:33;101635.03;;;-21.23;53.62
46846;BME280;33947;46.804;134.252;2024-01-15T10:26:41;101637.22;;;-21.19;53.67
46846;BME280;33947;46.804;134.252;2024-01-15T10:29:51;101628.72;;;-21.12;53.26
46846;BME280;33947;46.804;134.252;2024-01-15T10:32:59;101620.81;;;-21.30;52.84
46846;BME280;33947;46.804;134.252;2024-01-15T10:36:10;101567.13;;;-22.01;52.81
46846;BME280;33947;46.804;134.252;2024-01-15T10:39:17;101631.56;;;-22.03;52.65
46846;BME280;33947;46.804;134.252;2024-01-15T10:42:25;101629.75;;;-22.11;54.11
46846;BME280;33947;46.804;134.252;2024-01-15T10:45:34;101643.28;;;-21.96;53.92
46846;BME280;33947;46.804;134.252;2024-01-15T10:49:49;101616.44;;;-22.10;53.76
46846;BME280;33947;46.804;134.252;2024-01-15T10:53:02;101597.25;;;-22.52;53.35
46846;BME280;33947;46.804;134.252;2024-01-15T10:56:11;101649.72;;;-22.62;53.40
46846;BME280;33947;46.804;134.252;2024-01-15T10:59:24;101661.56;;;-23.23;53.84
46846;BME280;33947;46.804;134.252;2024-01-15T11:10:57;101673.16;;;-22.83;55.82
46846;BME280;33947;46.804;134.252;2024-01-15T11:14:10;101655.22;;;-22.99;54.94
46846;BME280;33947;46.804;134.252;2024-01-15T11:17:20;101675.63;;;-22.91;54.73
46846;BME280;33947;46.804;134.252;2024-01-15T11:20:29;101666.25;;;-23.19;55.23
46846;BME280;33947;46.804;134.252;2024-01-15T11:23:45;101680.03;;;-23.30;54.36
46846;BME280;33947;46.804;134.252;2024-01-15T11:27:05;101679.09;;;-23.51;55.15
46846;BME280;33947;46.804;134.252;2024-01-15T11:30:12;101561.66;;;-24.20;55.50
46846;BME280;33947;46.804;134.252;2024-01-15T11:33:33;101678.44;;;-23.22;55.28
46846;BME280;33947;46.804;134.252;2024-01-15T11:37:03;101679.09;;;-23.31;54.30
46846;BME280;33947;46.804;134.252;2024-01-15T11:40:11;101689.00;;;-23.52;54.58
46846;BME280;33947;46.804;134.252;2024-01-15T11:43:21;101693.69;;;-23.48;54.21
46846;BME280;33947;46.804;134.252;2024-01-15T11:46:34;101694.63;;;-24.01;54.17
46846;BME280;33947;46.804;134.252;2024-01-15T11:50:02;101705.94;;;-23.97;55.16
46846;BME280;33947;46.804;134.252;2024-01-15T11:53:46;101581.38;;;-24.69;54.85
46846;BME280;33947;46.804;134.252;2024-01-15T11:56:56;101705.78;;;-23.79;55.26
46846;BME280;33947;46.804;134.252;2024-01-15T12:00:05;101635.16;;;-24.54;55.28
46846;BME280;33947;46.804;134.252;2024-01-15T12:05:24;101719.09;;;-28.39;54.66
46846;BME280;33947;46.804;134.252;2024-01-15T12:08:34;101481.81;;;-30.38;55.96
46846;BME280;33947;46.804;134.252;2024-01-15T12:11:49;101724.81;;;-28.53;57.14
46846;BME280;33947;46.804;134.252;2024-01-15T12:15:03;101734.84;;;-28.27;56.41
46846;BME280;33947;46.804;134.252;2024-01-15T12:18:14;101730.22;;;-28.50;55.29
46846;BME280;33947;46.804;134.252;2024-01-15T12:21:26;101727.72;;;-28.50;56.46
46846;BME280;33947;46.804;134.252;2024-01-15T12:24:38;101739.47;;;-28.30;56.09
46846;BME280;33947;46.804;134.252;2024-01-15T12:27:52;101720.31;;;-28.55;56.07
46846;BME280;33947;46.804;134.252;2024-01-15T12:31:03;101667.81;;;-29.06;56.68
46846;BME280;33947;46.804;134.252;2024-01-15T12:34:14;101713.78;;;-28.86;56.66
46846;BME280;33947;46.804;134.252;2024-01-15T12:37:26;101727.31;;;-28.66;57.74
46846;BME280;33947;46.804;134.252;2024-01-15T12:40:36;101711.66;;;-28.44;56.52
46846;BME280;33947;46.804;134.252;2024-01-15T12:43:44;101719.69;;;-28.21;55.66
46846;BME280;33947;46.804;134.252;2024-01-15T12:46:51;101683.06;;;-28.52;54.98
46846;BME280;33947;46.804;134.252;2024-01-15T12:49:58;101730.63;;;-28.47;55.11
46846;BME280;33947;46.804;134.252;2024-01-15T12:53:21;101735.16;;;-28.83;54.39
46846;BME280;33947;46.804;134.252;2024-01-15T12:56:28;101725.38;;;-29.00;54.82
46846;BME280;33947;46.804;134.252;2024-01-15T12:59:35;101726.41;;;-29.37;55.13
46846;BME280;33947;46.804;134.252;2024-01-15T13:02:45;101733.34;;;-29.28;55.46
46846;BME280;33947;46.804;134.252;2024-01-15T13:05:51;101731.31;;;-29.44;56.51
46846;BME280;33947;46.804;134.252;2024-01-15T13:09:00;101725.00;;;-29.03;57.55
46846;BME280;33947;46.804;134.252;2024-01-15T13:12:10;101715.56;;;-29.43;56.88
46846;BME280;33947;46.804;134.252;2024-01-15T13:15:18;101715.78;;;-29.10;56.82
46846;BME280;33947;46.804;134.252;2024-01-15T13:18:26;101722.34;;;-29.23;56.34
46846;BME280;33947;46.804;134.252;2024-01-15T13:21:33;101728.22;;;-28.91;56.58
46846;BME280;33947;46.804;134.252;2024-01-15T13:24:43;101694.47;;;-29.19;56.09
46846;BME280;33947;46.804;134.252;2024-01-15T13:27:52;101736.53;;;-29.11;55.06
46846;BME280;33947;46.804;134.252;2024-01-15T13:30:59;101726.78;;;-29.15;55.47
46846;BME280;33947;46.804;134.252;2024-01-15T13:34:07;101756.28;;;-29.51;55.02
46846;BME280;33947;46.804;134.252;2024-01-15T13:37:15;101762.13;;;-29.64;55.13
46846;BME280;33947;46.804;134.252;2024-01-15T13:40:24;101760.59;;;-29.69;55.42
46846;BME280;33947;46.804;134.252;2024-01-15T13:43:32;101710.38;;;-29.76;55.73
46846;BME280;33947;46.804;134.252;2024-01-15T13:46:39;101761.50;;;-30.05;55.33
46846;BME280;33947;46.804;134.252;2024-01-15T13:49:46;101727.78;;;-30.20;56.49
46846;BME280;33947;46.804;134.252;2024-01-15T13:52:53;101774.72;;;-30.06;55.58
46846;BME280;33947;46.804;134.252;2024-01-15T13:56:02;101769.41;;;-30.02;55.97
46846;BME280;33947;46.804;134.252;2024-01-15T13:59:09;101776.88;;;-29.59;55.70
46846;BME280;33947;46.804;134.252;2024-01-15T14:02:17;101785.22;;;-29.72;55.11
46846;BME280;33947;46.804;134.252;2024-01-15T14:05:27;101772.78;;;-29.59;55.02
46846;BME280;33947;46.804;134.252;2024-01-15T14:08:34;101781.81;;;-29.91;54.82
46846;BME280;33947;46.804;134.252;2024-01-15T14:11:43;101775.44;;;-29.70;55.29
46846;BME280;33947;46.804;134.252;2024-01-15T14:14:51;101780.09;;;-29.79;55.07
46846;BME280;33947;46.804;134.252;2024-01-15T14:17:59;101777.09;;;-30.38;54.33
46846;BME280;33947;46.804;134.252;2024-01-15T14:21:06;101773.94;;;-30.18;54.74
46846;BME280;33947;46.804;134.252;2024-01-15T14:24:14;101765.38;;;-30.08;55.05
46846;BME280;33947;46.804;134.252;2024-01-15T14:27:25;101743.63;;;-29.77;54.36
46846;BME280;33947;46.804;134.252;2024-01-15T14:30:32;101746.75;;;-29.91;53.74
46846;BME280;33947;46.804;134.252;2024-01-15T14:33:39;101722.59;;;-30.09;54.02
46846;BME280;33947;46.804;134.252;2024-01-15T14:36:46;101729.34;;;-30.40;53.72
46846;BME280;33947;46.804;134.252;2024-01-15T14:39:54;101733.25;;;-30.42;54.69
46846;BME280;33947;46.804;134.252;2024-01-15T14:43:04;101730.38;;;-31.35;54.85
46846;BME280;33947;46.804;134.252;2024-01-15T14:46:13;101730.91;;;-31.07;55.49
46846;BME280;33947;46.804;134.252;2024-01-15T14:49:21;101729.03;;;-31.03;55.77
46846;BME280;33947;46.804;134.252;2024-01-15T14:52:28;101738.00;;;-30.86;55.46
46846;BME280;33947;46.804;134.252;2024-01-15T14:55:35;101742.09;;;-30.87;55.76
46846;BME280;33947;46.804;134.252;2024-01-15T14:58:45;101761.69;;;-30.71;55.67
46846;BME280;33947;46.804;134.252;2024-01-15T15:01:52;101738.78;;;-30.50;54.98
46846;BME280;33947;46.804;134.252;2024-01-15T15:05:01;101763.56;;;-30.52;54.57
46846;BME280;33947;46.804;134.252;2024-01-15T15:08:09;101742.91;;;-31.05;54.51
46846;BME280;33947;46.804;134.252;2024-01-15T15:11:18;101764.59;;;-30.87;54.70
46846;BME280;33947;46.804;134.252;2024-01-15T15:14:26;101770.38;;;-30.99;54.01
46846;BME280;33947;46.804;134.252;2024-01-15T15:17:33;101758.41;;;-31.07;54.13
46846;BME280;33947;46.804;134.252;2024-01-15T15:20:42;101771.56;;;-31.08;54.15
46846;BME280;33947;46.804;134.252;2024-01-15T15:23:49;101770.78;;;-31.26;54.07
46846;BME280;33947;46.804;134.252;2024-01-15T15:26:56;101748.19;;;-31.15;54.61
46846;BME280;33947;46.804;134.252;2024-01-15T15:30:08;101730.38;;;-31.65;54.85
46846;BME280;33947;46.804;134.252;2024-01-15T15:33:15;101762.91;;;-31.76;54.07
46846;BME280;33947;46.804;134.252;2024-01-15T15:36:23;101765.88;;;-31.43;55.34
46846;BME280;33947;46.804;134.252;2024-01-15T15:39:30;101762.31;;;-31.15;54.86
46846;BME280;33947;46.804;134.252;2024-01-15T15:42:37;101766.00;;;-30.94;53.95
46846;BME280;33947;46.804;134.252;2024-01-15T15:45:46;101768.78;;;-31.34;53.05
46846;BME280;33947;46.804;134.252;2024-01-15T15:48:54;101770.66;;;-31.45;53.56
46846;BME280;33947;46.804;134.252;2024-01-15T15:52:01;101782.78;;;-31.59;53.63
46846;BME280;33947;46.804;134.252;2024-01-15T15:55:09;101752.22;;;-31.70;53.76
46846;BME280;33947;46.804;134.252;2024-01-15T15:58:18;101770.34;;;-31.29;54.25
46846;BME280;33947;46.804;134.252;2024-01-15T16:01:28;101758.00;;;-31.52;53.14